Blytheville, AR (72315)

3:57 PM CST on February 14, 2016 (GMT -0600)
Blytheville Municipal | | Change Station
CLOSE
Current Station
Airport
Location: Blytheville Muni Airport,
Elevation: 256 ft
Nearby Weather Stations

Elev 256 ft 35.94 °N, 89.83 °W | Updated 4 minutes ago

Overcast
Overcast
37 °F
Feels Like 29 °F
N
13
Wind Variable Wind from North

Today
High -- | Low -- °F
--% Chance of Precip.
Yesterday
High -- | Low -- °F
Precip. -- in
Pressure 30.02 in
Visibility 10.0 miles
Clouds Overcast 3200 ft
Windchill 29 °F
Dew Point 27 °F
Humidity 67%
Rainfall 0.01 in
Snow Depth Not available.
6:48 AM 5:39 PM
Waxing Crescent, 45% visible
METAR KHKA 142153Z AUTO 01011KT 10SM OVC032 03/M03 A3001 RMK AO2 RAB41E50 SLP164 P0000 T00281028
Pressure 30.02 in
Visibility 10.0 miles
Clouds Overcast 3200 ft
Windchill 29 °F
Dew Point 27 °F
Humidity 67%
Rainfall 0.01 in
Snow Depth Not available.
6:48 AM 5:39 PM
Waxing Crescent, 45% visible
METAR KHKA 142153Z AUTO 01011KT 10SM OVC032 03/M03 A3001 RMK AO2 RAB41E50 SLP164 P0000 T00281028

10-Day Weather Forecast

Almanac

Astronomy

Feb. 14, 2016 Rise Set
Actual Time
Civil Twilight
Nautical Twilight
Astronomical Twilight
Moon
Length of Visible Light
Length of Day
Tomorrow will be .
, % of the Moon is Illuminated

Today's Extremes

State Highs State Lows

Community

WunderPhotos

Upload Photos

1,892,890 photos uploaded!

WunderBlog® & News

Nearby

Air Quality

  Air Quality AQ Index Pollutant
Not available.

Snow Depth

Station Depth Elevation

Earthquake Activity

City Distance Mag. Time & Date
Minimum magnitude displayed is 2.5.

Coastal Water Temperatures

Place Temperature

Stations

Nearby Weather Stations

Station Location Temp. Windchill Dew Point Humidity Wind Precip. Elev Updated Type
                   

Watches & Warnings

There are currently no watches in effect.